Time;durP1;ratioP1;P1;durP2;ratioP2;P2;SDS_P1;SDS_P2;PMS_P1;PMS_P2;Temp;Humidity;BMP_temperature;BMP_pressure;BME280_temperature;BME280_humidity;BME280_pressure;Samples;Min_cycle;Max_cycle;Signal;HPM_P1;HPM_P2
2021/10/18 00:01:36;;;;;;;3.67;3.37;;;15.90;99.90;;;;;;5047324;28;20944;-66
2021/10/18 00:04:07;;;;;;;3.70;3.23;;;15.80;99.90;;;;;;5051512;28;20454;-66
2021/10/18 00:06:38;;;;;;;3.77;3.07;;;15.50;99.90;;;;;;5056171;28;20967;-66
2021/10/18 00:09:09;;;;;;;3.10;2.77;;;15.40;99.90;;;;;;5052483;28;20980;-67
2021/10/18 00:11:43;;;;;;;3.47;2.70;;;15.40;99.90;;;;;;5042409;28;20954;-67
2021/10/18 00:14:16;;;;;;;3.60;2.73;;;15.20;99.90;;;;;;5052258;28;20574;-66
2021/10/18 00:16:47;;;;;;;2.60;2.13;;;15.00;99.90;;;;;;5052798;28;20782;-67
2021/10/18 00:19:18;;;;;;;2.80;2.30;;;14.90;99.90;;;;;;5051551;28;20594;-68
2021/10/18 00:21:49;;;;;;;2.07;1.90;;;14.90;99.90;;;;;;5047689;28;20463;-67
2021/10/18 00:24:20;;;;;;;2.33;2.03;;;14.90;99.90;;;;;;5049373;28;20471;-66
2021/10/18 00:26:51;;;;;;;2.80;2.60;;;14.60;99.90;;;;;;5059239;28;20546;-67
2021/10/18 00:29:23;;;;;;;2.10;1.90;;;14.50;99.90;;;;;;5058735;28;20552;-67
2021/10/18 00:31:54;;;;;;;1.50;1.40;;;14.30;99.90;;;;;;5054408;28;21182;-67
2021/10/18 00:34:25;;;;;;;1.80;1.70;;;14.30;99.90;;;;;;5052919;28;20475;-69
2021/10/18 00:36:56;;;;;;;2.10;1.90;;;14.20;99.90;;;;;;5054128;28;20567;-68
2021/10/18 00:39:27;;;;;;;2.20;1.77;;;14.20;99.90;;;;;;5057515;28;20566;-67
2021/10/18 00:41:58;;;;;;;1.87;1.77;;;14.10;99.90;;;;;;5059594;28;20543;-68
2021/10/18 00:44:31;;;;;;;1.27;1.17;;;14.00;99.90;;;;;;5058906;28;20839;-69
2021/10/18 00:47:02;;;;;;;1.33;1.10;;;14.00;99.90;;;;;;5051588;28;20575;-66
2021/10/18 00:49:33;;;;;;;2.77;1.23;;;13.90;99.90;;;;;;5050318;28;20543;-67
2021/10/18 00:52:04;;;;;;;3.00;1.13;;;13.90;99.90;;;;;;5052669;28;20491;-68
2021/10/18 00:54:36;;;;;;;1.13;1.03;;;13.80;99.90;;;;;;5042138;28;20641;-68
2021/10/18 00:57:07;;;;;;;1.00;0.97;;;13.80;99.90;;;;;;5055337;28;20550;-67
2021/10/18 00:59:39;;;;;;;1.40;1.30;;;13.80;99.90;;;;;;5054095;28;20483;-67
2021/10/18 01:02:10;;;;;;;1.10;1.00;;;13.70;99.90;;;;;;5048985;28;20631;-67
2021/10/18 01:04:42;;;;;;;2.10;0.80;;;13.70;99.90;;;;;;5046935;28;20468;-68
2021/10/18 01:07:14;;;;;;;2.40;1.00;;;13.70;99.90;;;;;;5057510;28;20544;-67
2021/10/18 01:09:45;;;;;;;1.70;1.27;;;13.80;99.90;;;;;;5055800;28;20502;-67
2021/10/18 01:12:16;;;;;;;1.17;1.07;;;13.70;99.90;;;;;;5069673;28;20905;-67
2021/10/18 01:14:49;;;;;;;1.47;1.07;;;13.60;99.90;;;;;;5055344;28;20552;-67
2021/10/18 01:17:20;;;;;;;2.00;1.30;;;13.70;99.90;;;;;;5061941;28;20835;-68
2021/10/18 01:19:51;;;;;;;0.73;0.73;;;13.70;99.90;;;;;;5054057;28;20728;-68
2021/10/18 01:22:23;;;;;;;1.13;1.07;;;13.60;99.90;;;;;;5055663;28;20463;-67
2021/10/18 01:24:54;;;;;;;1.50;1.07;;;13.50;99.90;;;;;;5046374;28;20532;-67
2021/10/18 01:27:25;;;;;;;3.83;1.30;;;13.50;99.90;;;;;;5044969;28;20471;-67
2021/10/18 01:29:56;;;;;;;1.50;1.30;;;13.40;99.90;;;;;;5047408;28;20460;-67
2021/10/18 01:32:27;;;;;;;6.33;4.70;;;13.30;99.90;;;;;;5044826;28;20483;-68
2021/10/18 01:34:57;;;;;;;4.07;2.50;;;13.30;99.90;;;;;;5048395;28;20456;-67
2021/10/18 01:37:30;;;;;;;2.50;1.20;;;13.20;99.90;;;;;;5050692;28;20456;-67
2021/10/18 01:40:01;;;;;;;2.00;1.80;;;13.20;99.90;;;;;;5046653;28;20475;-67
2021/10/18 01:42:31;;;;;;;1.23;1.13;;;13.20;99.90;;;;;;5060956;28;20972;-70
2021/10/18 01:45:02;;;;;;;1.37;1.00;;;13.20;99.90;;;;;;5049884;28;20467;-67
2021/10/18 01:47:33;;;;;;;1.80;1.30;;;13.20;99.90;;;;;;5043849;28;20484;-67
2021/10/18 01:50:09;;;;;;;1.10;1.10;;;13.20;99.90;;;;;;5060644;28;20521;-68
2021/10/18 01:52:41;;;;;;;1.07;1.07;;;13.30;99.90;;;;;;5054909;28;20460;-67
2021/10/18 01:55:13;;;;;;;1.37;1.27;;;13.10;99.90;;;;;;5050533;28;20479;-70
2021/10/18 01:57:44;;;;;;;1.30;1.10;;;13.10;99.90;;;;;;5050869;28;20456;-64
2021/10/18 02:00:16;;;;;;;1.33;0.90;;;13.00;99.90;;;;;;5052947;28;20469;-65
2021/10/18 02:02:47;;;;;;;0.93;0.93;;;12.90;99.90;;;;;;5052543;28;20547;-65
2021/10/18 02:05:18;;;;;;;1.10;1.00;;;12.80;99.90;;;;;;5058366;28;20466;-65
2021/10/18 02:07:51;;;;;;;0.87;0.87;;;12.80;99.90;;;;;;5055931;28;20443;-67
2021/10/18 02:10:22;;;;;;;1.10;1.10;;;12.80;99.90;;;;;;5065809;28;20537;-67
2021/10/18 02:12:53;;;;;;;2.13;1.87;;;12.80;99.90;;;;;;5048478;28;20950;-66
2021/10/18 02:15:24;;;;;;;1.53;1.00;;;12.80;99.90;;;;;;5047884;28;20866;-66
2021/10/18 02:17:54;;;;;;;0.87;0.87;;;12.90;99.90;;;;;;5065563;28;20546;-67
2021/10/18 02:20:25;;;;;;;1.13;1.00;;;12.80;99.90;;;;;;5044953;28;20464;-68
2021/10/18 02:22:58;;;;;;;1.03;0.90;;;12.80;99.90;;;;;;5045948;28;20566;-69
2021/10/18 02:25:28;;;;;;;1.57;1.23;;;12.80;99.90;;;;;;5057420;28;20499;-70
2021/10/18 02:27:59;;;;;;;0.60;0.60;;;12.80;99.90;;;;;;5063167;28;20451;-68
2021/10/18 02:30:30;;;;;;;0.87;0.70;;;12.70;99.90;;;;;;5053793;28;20464;-68
2021/10/18 02:33:01;;;;;;;0.80;0.80;;;12.70;99.90;;;;;;5044723;28;20791;-73
2021/10/18 02:35:31;;;;;;;1.53;0.70;;;12.60;99.90;;;;;;5057166;28;20456;-73
2021/10/18 02:38:04;;;;;;;0.80;0.80;;;12.50;99.90;;;;;;5049940;28;20455;-72
2021/10/18 02:40:35;;;;;;;1.80;0.70;;;12.50;99.90;;;;;;5063707;28;20483;-68
2021/10/18 02:43:06;;;;;;;0.97;0.90;;;12.50;99.90;;;;;;5058507;28;20448;-69
2021/10/18 02:45:36;;;;;;;1.00;0.70;;;12.50;99.90;;;;;;5051357;28;20817;-69
2021/10/18 02:48:07;;;;;;;1.83;1.10;;;12.60;99.90;;;;;;5045351;28;20459;-69
2021/10/18 02:50:38;;;;;;;2.40;0.80;;;12.50;99.90;;;;;;5056696;28;20456;-69
2021/10/18 02:53:11;;;;;;;0.93;0.83;;;12.50;99.90;;;;;;5051977;28;20487;-69
2021/10/18 02:55:41;;;;;;;0.87;0.60;;;12.50;99.90;;;;;;5048675;28;20451;-70
2021/10/18 02:58:12;;;;;;;1.47;0.80;;;12.60;99.90;;;;;;5068826;28;20803;-70
2021/10/18 03:00:43;;;;;;;0.70;0.70;;;12.60;99.90;;;;;;5069388;28;20452;-70
2021/10/18 03:03:14;;;;;;;0.80;0.80;;;12.60;99.90;;;;;;5061815;28;20464;-70
2021/10/18 03:05:45;;;;;;;1.00;0.90;;;12.50;99.90;;;;;;5053774;28;20463;-70
2021/10/18 03:08:18;;;;;;;1.03;0.97;;;12.50;99.90;;;;;;5062924;28;20893;-70
2021/10/18 03:10:49;;;;;;;1.00;0.77;;;12.50;99.90;;;;;;5053029;28;20806;-70
2021/10/18 03:13:20;;;;;;;1.00;0.90;;;12.50;99.90;;;;;;5047245;28;20491;-71
2021/10/18 03:15:51;;;;;;;1.67;1.30;;;12.50;99.90;;;;;;5059000;28;20458;-71
2021/10/18 03:18:22;;;;;;;3.33;1.27;;;12.40;99.90;;;;;;5049006;28;20460;-71
2021/10/18 03:20:53;;;;;;;1.57;1.40;;;12.40;99.90;;;;;;5048133;28;20463;-70
2021/10/18 03:23:25;;;;;;;1.63;1.50;;;12.40;99.90;;;;;;5055673;28;20464;-71
2021/10/18 03:25:56;;;;;;;2.37;1.43;;;12.40;99.90;;;;;;5054522;28;20644;-70
2021/10/18 03:28:27;;;;;;;1.20;1.10;;;12.40;99.90;;;;;;5053598;28;20486;-70
2021/10/18 03:30:58;;;;;;;1.40;1.30;;;12.40;99.90;;;;;;5055850;28;20799;-71
2021/10/18 03:33:31;;;;;;;2.00;1.63;;;12.40;99.90;;;;;;5052712;28;20467;-71
2021/10/18 03:36:02;;;;;;;1.23;1.13;;;12.50;99.90;;;;;;5052469;28;20449;-70
2021/10/18 03:38:35;;;;;;;1.47;1.37;;;12.50;99.90;;;;;;5048609;28;20578;-70
2021/10/18 03:41:06;;;;;;;1.77;1.40;;;12.50;99.90;;;;;;5053093;28;20498;-71
2021/10/18 03:43:37;;;;;;;1.83;1.73;;;12.50;99.90;;;;;;5050643;28;20467;-71
2021/10/18 03:46:08;;;;;;;2.93;1.60;;;12.50;99.90;;;;;;5061109;28;20483;-70
2021/10/18 03:48:38;;;;;;;1.50;1.40;;;12.50;99.90;;;;;;5046410;28;20876;-70
2021/10/18 03:51:09;;;;;;;2.03;1.90;;;12.50;99.90;;;;;;5052757;28;20460;-69
2021/10/18 03:53:42;;;;;;;1.97;1.77;;;12.50;99.90;;;;;;5043178;28;20468;-69
2021/10/18 03:56:12;;;;;;;1.63;1.53;;;12.40;99.90;;;;;;5053001;28;20460;-69
2021/10/18 03:58:43;;;;;;;1.60;1.50;;;12.40;99.90;;;;;;5071334;28;20530;-69
2021/10/18 04:01:14;;;;;;;1.53;1.43;;;12.40;99.90;;;;;;5070387;28;20455;-70
2021/10/18 04:03:45;;;;;;;2.10;1.90;;;12.40;99.90;;;;;;5062825;28;20491;-68
2021/10/18 04:06:16;;;;;;;1.70;1.60;;;12.50;99.90;;;;;;5071033;28;20498;-68
2021/10/18 04:08:49;;;;;;;3.57;1.80;;;12.50;99.90;;;;;;5056055;28;20459;-70
2021/10/18 04:11:20;;;;;;;2.17;1.53;;;12.50;99.90;;;;;;5071046;28;20477;-69
2021/10/18 04:13:51;;;;;;;2.00;1.80;;;12.40;99.90;;;;;;5053806;28;21010;-71
2021/10/18 04:16:22;;;;;;;2.40;1.43;;;12.30;99.90;;;;;;5047069;28;20468;-72
2021/10/18 04:18:53;;;;;;;2.33;1.73;;;12.20;99.90;;;;;;5051400;28;20465;-73
2021/10/18 04:21:24;;;;;;;3.77;1.80;;;12.20;99.90;;;;;;5053632;28;20488;-72
2021/10/18 04:23:56;;;;;;;3.00;1.90;;;12.20;99.90;;;;;;5046953;28;20897;-72
2021/10/18 04:26:27;;;;;;;2.20;2.10;;;12.10;99.90;;;;;;5055042;28;20483;-73
2021/10/18 04:28:58;;;;;;;2.10;2.00;;;12.10;99.90;;;;;;5070201;28;20953;-71
2021/10/18 04:31:30;;;;;;;2.20;2.00;;;12.20;99.90;;;;;;5059632;28;20489;-72
2021/10/18 04:34:01;;;;;;;4.73;2.17;;;12.10;99.90;;;;;;5047962;28;20542;-71
2021/10/18 04:36:32;;;;;;;2.40;2.20;;;12.10;99.90;;;;;;5053707;28;20472;-72
2021/10/18 04:39:05;;;;;;;3.03;2.53;;;12.10;99.90;;;;;;5048477;28;20463;-71
2021/10/18 04:41:36;;;;;;;2.30;2.10;;;12.00;99.90;;;;;;5053139;28;20492;-72
2021/10/18 04:44:07;;;;;;;3.13;2.43;;;11.90;99.90;;;;;;5044144;28;20483;-72
2021/10/18 04:46:38;;;;;;;2.53;2.30;;;11.90;99.90;;;;;;5052028;28;20483;-72
2021/10/18 04:49:09;;;;;;;2.23;2.00;;;11.80;99.90;;;;;;5045962;28;20961;-74
2021/10/18 04:51:39;;;;;;;3.00;2.80;;;11.90;99.90;;;;;;5055077;28;20463;-74
2021/10/18 04:54:13;;;;;;;1.93;1.73;;;11.80;99.90;;;;;;5045396;28;20479;-73
2021/10/18 04:56:43;;;;;;;1.93;1.77;;;11.90;99.90;;;;;;5044117;28;20954;-73
2021/10/18 04:59:14;;;;;;;2.90;2.60;;;11.80;99.90;;;;;;5049055;28;20460;-73
2021/10/18 05:01:45;;;;;;;1.50;1.40;;;11.80;99.90;;;;;;5061217;28;20922;-73
2021/10/18 05:04:16;;;;;;;1.83;1.73;;;11.70;99.90;;;;;;5049907;28;20550;-73
2021/10/18 05:06:47;;;;;;;2.43;2.20;;;11.70;99.90;;;;;;5051447;28;20941;-72
2021/10/18 05:09:19;;;;;;;1.97;1.87;;;11.70;99.90;;;;;;5049738;28;20922;-71
2021/10/18 05:11:50;;;;;;;1.63;1.53;;;11.70;99.90;;;;;;5053175;28;20582;-71
2021/10/18 05:14:22;;;;;;;1.70;1.60;;;11.80;99.90;;;;;;5048276;28;20545;-75
2021/10/18 05:16:52;;;;;;;1.70;1.60;;;11.80;99.90;;;;;;5052883;28;20611;-74
2021/10/18 05:19:23;;;;;;;1.87;1.70;;;11.80;99.90;;;;;;5048131;28;20475;-72
2021/10/18 05:21:54;;;;;;;1.70;1.60;;;11.80;99.90;;;;;;5051782;28;20555;-71
2021/10/18 05:24:26;;;;;;;2.20;2.00;;;11.80;99.90;;;;;;5046457;28;20586;-72
2021/10/18 05:26:57;;;;;;;2.13;1.80;;;11.70;99.90;;;;;;5053801;28;20514;-72
2021/10/18 05:29:28;;;;;;;2.00;1.80;;;11.70;99.90;;;;;;5062640;28;20463;-73
2021/10/18 05:31:59;;;;;;;1.70;1.60;;;11.80;99.90;;;;;;5058597;28;20450;-73
2021/10/18 05:34:30;;;;;;;2.00;1.90;;;11.70;99.90;;;;;;5053803;28;20560;-73
2021/10/18 05:37:00;;;;;;;2.20;2.10;;;11.70;99.90;;;;;;5067730;28;20464;-73
2021/10/18 05:39:33;;;;;;;3.50;2.20;;;11.80;99.90;;;;;;5056220;28;20464;-73
2021/10/18 05:42:04;;;;;;;2.03;1.60;;;11.90;99.90;;;;;;5064496;28;20482;-73
2021/10/18 05:44:34;;;;;;;1.93;1.53;;;11.80;99.90;;;;;;5069113;28;20920;-73
2021/10/18 05:47:05;;;;;;;2.00;1.80;;;11.80;99.90;;;;;;5046446;28;20493;-73
2021/10/18 05:49:36;;;;;;;1.60;1.50;;;11.70;99.90;;;;;;5059973;28;20455;-74
2021/10/18 05:52:07;;;;;;;1.73;1.50;;;11.70;99.90;;;;;;5051165;28;20949;-73
2021/10/18 05:54:39;;;;;;;3.57;1.50;;;11.70;99.90;;;;;;5054638;28;20928;-72
2021/10/18 05:57:21;;;;;;;1.83;1.73;;;11.70;99.90;;;;;;5055558;28;20471;-72
2021/10/18 05:59:52;;;;;;;1.63;1.53;;;11.70;99.90;;;;;;5058828;28;20474;-73
2021/10/18 06:02:23;;;;;;;4.07;1.13;;;11.60;99.90;;;;;;5052602;28;20494;-73
2021/10/18 06:04:54;;;;;;;1.73;1.30;;;11.50;99.90;;;;;;5055323;28;20552;-73
2021/10/18 06:07:25;;;;;;;2.03;1.30;;;11.50;99.90;;;;;;5047060;28;20480;-73
2021/10/18 06:09:57;;;;;;;2.30;1.53;;;11.50;99.90;;;;;;5055257;28;20547;-73
2021/10/18 06:12:28;;;;;;;2.00;1.33;;;11.50;99.90;;;;;;5046778;28;20463;-73
2021/10/18 06:14:59;;;;;;;1.50;1.40;;;11.60;99.90;;;;;;5047998;28;20707;-73
2021/10/18 06:17:30;;;;;;;2.50;1.47;;;11.60;99.90;;;;;;5053380;28;20467;-73
2021/10/18 06:20:00;;;;;;;2.00;1.80;;;11.50;99.90;;;;;;5041853;28;20481;-73
2021/10/18 06:22:31;;;;;;;1.87;1.40;;;11.50;99.90;;;;;;5049341;28;20479;-73
2021/10/18 06:25:04;;;;;;;1.90;1.60;;;11.40;99.90;;;;;;5053570;28;20486;-73
2021/10/18 06:27:34;;;;;;;1.83;1.53;;;11.40;99.90;;;;;;5054687;28;20459;-73
2021/10/18 06:30:06;;;;;;;2.83;1.77;;;11.40;99.90;;;;;;5055387;28;20460;-72
2021/10/18 06:32:37;;;;;;;3.00;1.83;;;11.40;99.90;;;;;;5051888;28;20476;-74
2021/10/18 06:35:09;;;;;;;2.90;1.90;;;11.40;99.90;;;;;;5044226;28;20929;-73
2021/10/18 06:37:39;;;;;;;2.40;1.33;;;11.40;99.90;;;;;;5057590;28;20456;-73
2021/10/18 06:40:13;;;;;;;2.30;1.60;;;11.30;99.90;;;;;;5046545;28;20460;-73
2021/10/18 06:42:44;;;;;;;2.20;1.63;;;11.30;99.90;;;;;;5061125;28;20446;-73
2021/10/18 06:45:15;;;;;;;2.60;1.50;;;11.30;99.90;;;;;;5065063;28;20948;-73
2021/10/18 06:47:46;;;;;;;2.93;2.30;;;11.30;99.90;;;;;;5050337;28;20551;-73
2021/10/18 06:50:17;;;;;;;1.60;1.50;;;11.40;99.90;;;;;;5049257;28;20447;-73
2021/10/18 06:52:47;;;;;;;2.03;1.90;;;11.30;99.90;;;;;;5060276;28;20472;-73
2021/10/18 06:55:21;;;;;;;5.40;2.17;;;11.30;99.90;;;;;;5052915;28;20466;-74
2021/10/18 06:57:52;;;;;;;3.30;2.80;;;11.30;99.90;;;;;;5057067;28;20833;-74
2021/10/18 07:00:23;;;;;;;2.27;1.90;;;11.30;99.90;;;;;;5047050;28;20471;-73
2021/10/18 07:02:54;;;;;;;3.07;2.50;;;11.30;99.90;;;;;;5049350;28;20529;-73
2021/10/18 07:05:25;;;;;;;3.30;2.37;;;11.30;99.90;;;;;;5047926;28;20460;-73
2021/10/18 07:07:56;;;;;;;2.83;1.83;;;11.30;99.90;;;;;;5046312;28;20954;-72
2021/10/18 07:10:29;;;;;;;2.10;1.67;;;11.30;99.90;;;;;;5053178;28;20498;-73
2021/10/18 07:12:59;;;;;;;2.53;1.50;;;11.30;99.90;;;;;;5051938;28;20464;-73
2021/10/18 07:15:30;;;;;;;3.33;1.70;;;11.30;99.90;;;;;;5057987;28;20459;-73
2021/10/18 07:18:01;;;;;;;2.00;1.60;;;11.20;99.90;;;;;;5049734;28;20527;-73
2021/10/18 07:20:32;;;;;;;5.30;1.90;;;11.20;99.90;;;;;;5054061;28;20464;-74
2021/10/18 07:23:07;;;;;;;2.33;1.50;;;11.10;99.90;;;;;;5049333;28;20483;-73
2021/10/18 07:25:41;;;;;;;4.37;1.43;;;11.30;99.90;;;;;;5066770;28;20459;-73
2021/10/18 07:28:13;;;;;;;2.00;1.40;;;11.30;99.90;;;;;;5049337;28;20866;-73
2021/10/18 07:30:45;;;;;;;2.67;1.27;;;11.20;99.90;;;;;;5062291;28;20447;-73
2021/10/18 07:33:16;;;;;;;3.93;1.47;;;11.20;99.90;;;;;;5054102;28;20560;-73
2021/10/18 07:35:47;;;;;;;2.00;1.30;;;11.20;99.90;;;;;;5054440;28;20451;-73
2021/10/18 07:38:19;;;;;;;1.47;1.37;;;11.20;99.90;;;;;;5053947;28;20460;-72
2021/10/18 07:40:52;;;;;;;1.70;1.60;;;11.10;99.90;;;;;;5049765;28;20466;-72
2021/10/18 07:43:22;;;;;;;2.20;1.20;;;11.10;99.90;;;;;;5059409;28;20462;-73
2021/10/18 07:45:54;;;;;;;1.23;1.13;;;11.10;99.90;;;;;;5068293;28;20566;-74
2021/10/18 07:48:24;;;;;;;2.70;1.20;;;11.20;99.90;;;;;;5051854;28;20475;-73
2021/10/18 07:50:55;;;;;;;4.83;1.80;;;11.20;99.90;;;;;;5051617;28;20452;-73
2021/10/18 07:53:26;;;;;;;2.03;1.33;;;11.10;99.90;;;;;;5055828;28;20472;-73
2021/10/18 07:55:59;;;;;;;1.40;1.27;;;11.20;99.90;;;;;;5056492;28;20487;-73
2021/10/18 07:58:30;;;;;;;3.00;1.50;;;11.20;99.90;;;;;;5051141;28;20468;-73
2021/10/18 08:01:00;;;;;;;2.03;1.40;;;11.20;99.90;;;;;;5051057;28;20464;-71
2021/10/18 08:03:31;;;;;;;1.90;1.17;;;11.20;99.90;;;;;;5054453;28;20495;-72
2021/10/18 08:06:02;;;;;;;2.90;1.30;;;11.20;99.90;;;;;;5047570;28;20865;-72
2021/10/18 08:08:40;;;;;;;6.03;2.27;;;11.20;99.90;;;;;;5059110;28;20467;-76
2021/10/18 08:11:13;;;;;;;1.50;1.40;;;11.20;99.90;;;;;;5049587;28;20486;-74
2021/10/18 08:13:44;;;;;;;6.00;1.87;;;11.20;99.90;;;;;;5045037;28;20475;-73
2021/10/18 08:16:15;;;;;;;2.83;1.20;;;11.20;99.90;;;;;;5055635;28;20529;-72
2021/10/18 08:18:46;;;;;;;1.47;1.37;;;11.20;99.90;;;;;;5056653;28;20509;-73
2021/10/18 08:21:17;;;;;;;2.37;1.27;;;11.20;99.90;;;;;;5060060;28;20464;-72
2021/10/18 08:23:47;;;;;;;2.50;1.90;;;11.20;99.90;;;;;;5056016;28;20478;-72
2021/10/18 08:26:20;;;;;;;1.43;1.33;;;11.20;99.90;;;;;;5060415;28;20456;-72
2021/10/18 08:28:51;;;;;;;4.67;1.90;;;11.20;99.90;;;;;;5050906;28;20468;-72
2021/10/18 08:31:22;;;;;;;3.90;1.57;;;11.20;99.90;;;;;;5059264;28;20551;-72
2021/10/18 08:33:53;;;;;;;4.60;1.97;;;11.20;99.90;;;;;;5050478;28;20479;-72
2021/10/18 08:36:24;;;;;;;4.90;1.50;;;11.20;99.90;;;;;;5040686;28;20467;-72
2021/10/18 08:39:54;;;;;;;3.67;1.50;;;11.20;99.90;;;;;;5052078;28;20464;-72
2021/10/18 08:41:50;;;;;;;3.40;1.60;;;11.20;99.90;;;;;;5047583;28;21033;-72
2021/10/18 08:44:21;;;;;;;3.97;1.70;;;11.20;99.90;;;;;;5052879;28;20949;-73
2021/10/18 08:46:53;;;;;;;5.73;1.70;;;11.10;99.90;;;;;;5051122;28;20474;-73
2021/10/18 08:49:24;;;;;;;5.40;1.63;;;11.10;99.90;;;;;;5050023;28;20474;-73
2021/10/18 08:51:55;;;;;;;3.47;1.60;;;11.10;99.90;;;;;;5056215;28;20460;-72
2021/10/18 08:54:25;;;;;;;3.33;1.60;;;11.10;99.90;;;;;;5065024;28;20487;-73
2021/10/18 08:56:58;;;;;;;3.93;2.03;;;11.10;99.90;;;;;;5054916;28;20957;-73
2021/10/18 08:59:29;;;;;;;2.70;1.73;;;11.10;99.90;;;;;;5059041;28;20467;-73
2021/10/18 09:02:01;;;;;;;2.30;1.20;;;11.20;99.90;;;;;;5054325;28;20973;-72
2021/10/18 09:04:38;;;;;;;2.10;1.63;;;11.30;99.90;;;;;;5057669;28;20545;-72
2021/10/18 09:07:17;;;;;;;2.03;1.60;;;11.20;99.90;;;;;;5048544;28;20564;-71
2021/10/18 09:09:49;;;;;;;1.40;1.30;;;11.20;99.90;;;;;;5047084;28;20472;-72
2021/10/18 09:12:31;;;;;;;1.93;1.70;;;11.10;99.90;;;;;;5058679;28;20551;-72
2021/10/18 09:15:20;;;;;;;2.53;1.70;;;11.00;99.90;;;;;;5062633;28;20546;-73
2021/10/18 09:17:55;;;;;;;3.40;2.10;;;11.10;99.90;;;;;;5040012;28;20464;-72
2021/10/18 09:20:28;;;;;;;1.90;1.10;;;11.10;99.90;;;;;;5051337;28;20456;-72
2021/10/18 09:23:22;;;;;;;3.63;1.70;;;11.10;99.90;;;;;;5048321;28;20488;-72
2021/10/18 09:25:58;;;;;;;2.73;1.50;;;11.20;99.90;;;;;;5042616;28;20459;-72
2021/10/18 09:28:31;;;;;;;4.93;1.57;;;11.10;99.90;;;;;;5056085;28;20760;-73
2021/10/18 09:31:02;;;;;;;2.10;1.50;;;11.10;99.90;;;;;;5048475;28;20556;-72
2021/10/18 09:33:36;;;;;;;2.00;1.50;;;11.20;99.90;;;;;;5053413;28;20453;-72
2021/10/18 09:36:11;;;;;;;1.60;1.30;;;11.10;99.90;;;;;;5043606;28;20460;-72
2021/10/18 09:38:42;;;;;;;1.40;1.30;;;11.20;99.90;;;;;;5058691;28;20941;-72
2021/10/18 09:41:13;;;;;;;4.00;1.90;;;11.10;99.90;;;;;;5050491;28;20937;-72
2021/10/18 09:44:02;;;;;;;3.60;1.40;;;11.10;99.90;;;;;;5048880;28;20856;-73
2021/10/18 09:46:46;;;;;;;3.03;1.70;;;11.10;99.90;;;;;;5051057;28;20927;-72
2021/10/18 10:51:37;;;;;;;2.00;1.90;;;11.00;99.90;;;;;;5057569;28;20463;-73
2021/10/18 10:54:08;;;;;;;4.70;1.93;;;10.90;99.90;;;;;;5051625;28;20472;-73
2021/10/18 10:56:45;;;;;;;4.77;2.10;;;10.90;99.90;;;;;;5036947;28;20472;-72
2021/10/18 10:59:20;;;;;;;3.67;1.93;;;10.90;99.90;;;;;;5051933;28;20522;-73
2021/10/18 11:01:57;;;;;;;4.30;2.13;;;10.90;99.90;;;;;;5056651;28;20833;-73
2021/10/18 11:04:50;;;;;;;3.87;2.37;;;10.80;99.90;;;;;;5060488;28;20579;-73
2021/10/18 11:07:55;;;;;;;2.10;1.77;;;10.90;99.90;;;;;;5053677;28;20487;-73
2021/10/18 11:10:27;;;;;;;4.57;2.40;;;10.90;99.90;;;;;;5043382;28;20464;-73
2021/10/18 11:13:09;;;;;;;2.40;1.87;;;10.90;99.90;;;;;;5052783;28;20486;-73
2021/10/18 11:15:40;;;;;;;10.37;2.10;;;10.90;99.90;;;;;;5064628;28;20451;-73
2021/10/18 11:18:15;;;;;;;2.40;1.70;;;10.80;99.90;;;;;;5051433;28;20487;-72
2021/10/18 11:20:45;;;;;;;2.10;1.90;;;10.80;99.90;;;;;;5054112;28;20459;-73
2021/10/18 11:23:18;;;;;;;3.30;2.13;;;10.90;99.90;;;;;;5046163;28;20505;-73
2021/10/18 11:25:49;;;;;;;2.73;2.27;;;10.90;99.90;;;;;;5055285;28;20468;-72
2021/10/18 11:28:20;;;;;;;2.40;1.90;;;10.90;99.90;;;;;;5060729;28;20487;-72
2021/10/18 11:31:01;;;;;;;2.20;1.53;;;10.90;99.90;;;;;;5050162;28;20529;-73
2021/10/18 11:33:32;;;;;;;3.87;2.23;;;10.90;99.90;;;;;;5048618;28;20536;-72
2021/10/18 11:36:17;;;;;;;3.83;2.00;;;10.90;99.90;;;;;;5057589;28;20478;-72
2021/10/18 11:38:49;;;;;;;3.40;2.03;;;10.90;99.90;;;;;;5048557;28;20529;-72
2021/10/18 11:41:20;;;;;;;2.13;1.60;;;10.90;99.90;;;;;;5044323;28;20525;-73
2021/10/18 11:43:51;;;;;;;2.17;1.70;;;10.80;99.90;;;;;;5053431;28;20480;-72
2021/10/18 11:46:22;;;;;;;2.33;1.37;;;10.80;99.90;;;;;;5050327;28;20822;-73
2021/10/18 11:48:53;;;;;;;7.30;2.30;;;10.80;99.90;;;;;;5050588;28;20555;-72
2021/10/18 11:51:25;;;;;;;4.60;2.10;;;10.90;99.90;;;;;;5048750;28;20496;-72
2021/10/18 11:53:58;;;;;;;4.40;2.00;;;10.80;99.90;;;;;;5050821;28;20782;-72
2021/10/18 11:56:30;;;;;;;2.03;1.70;;;10.80;99.90;;;;;;5047207;28;20468;-73
2021/10/18 11:59:07;;;;;;;3.10;1.80;;;10.80;99.90;;;;;;5051538;28;20460;-70
2021/10/18 12:01:42;;;;;;;10.53;2.47;;;10.80;99.90;;;;;;5055278;28;20825;-74
2021/10/18 12:05:05;;;;;;;2.17;1.60;;;10.90;99.90;;;;;;5034722;28;20590;-91
2021/10/18 12:07:52;;;;;;;5.47;1.57;;;10.80;99.90;;;;;;5055212;28;20468;-71
2021/10/18 12:10:27;;;;;;;5.27;2.30;;;10.80;99.90;;;;;;5054309;28;20468;-70
2021/10/18 12:13:25;;;;;;;1.53;1.43;;;10.70;99.90;;;;;;5055234;28;20557;-71
2021/10/18 12:16:19;;;;;;;2.20;1.77;;;10.70;99.90;;;;;;5053581;28;20463;-71
2021/10/18 12:18:51;;;;;;;3.33;1.93;;;10.70;99.90;;;;;;5053509;28;20554;-70
2021/10/18 12:21:25;;;;;;;2.73;1.60;;;10.50;99.90;;;;;;5050216;28;20494;-70
2021/10/18 12:23:58;;;;;;;3.10;1.77;;;10.50;99.90;;;;;;5051378;28;20856;-70
2021/10/18 12:26:31;;;;;;;5.90;2.03;;;10.50;99.90;;;;;;5048576;28;20657;-70
2021/10/18 12:29:07;;;;;;;4.93;1.97;;;10.50;99.90;;;;;;5051783;28;20471;-71
2021/10/18 12:31:40;;;;;;;2.97;2.77;;;10.50;99.90;;;;;;5057691;28;20455;-70
2021/10/18 12:34:26;;;;;;;4.43;2.10;;;10.40;99.90;;;;;;5044313;28;20452;-70
2021/10/18 12:37:04;;;;;;;3.80;2.13;;;10.40;99.90;;;;;;5048746;28;20468;-71
2021/10/18 12:39:42;;;;;;;4.50;2.00;;;10.40;99.90;;;;;;5048188;28;20464;-71
2021/10/18 12:42:36;;;;;;;2.97;1.83;;;10.40;99.90;;;;;;5054282;28;20233;-70
2021/10/18 12:45:09;;;;;;;7.70;2.08;;;10.30;99.90;;;;;;5047084;28;20352;-70
2021/10/18 12:47:42;;;;;;;4.20;2.20;;;10.20;99.90;;;;;;5037166;28;20370;-71
2021/10/18 12:50:15;;;;;;;2.83;2.03;;;10.20;99.90;;;;;;5050410;28;20474;-70
2021/10/18 12:52:55;;;;;;;2.00;1.60;;;10.30;99.90;;;;;;5069138;28;20451;-71
2021/10/18 12:55:27;;;;;;;3.07;1.50;;;10.20;99.90;;;;;;5045455;28;20821;-71
2021/10/18 12:58:01;;;;;;;2.53;1.90;;;10.20;99.90;;;;;;5047085;28;20456;-70
2021/10/18 13:00:33;;;;;;;2.70;1.80;;;10.20;99.90;;;;;;5060414;28;20897;-70
2021/10/18 13:03:19;;;;;;;7.87;1.77;;;10.20;99.90;;;;;;5046199;28;20521;-71
2021/10/18 13:05:52;;;;;;;2.70;2.17;;;10.20;99.90;;;;;;5048298;28;20460;-70
2021/10/18 13:08:25;;;;;;;2.20;2.00;;;10.20;99.90;;;;;;5052261;28;20780;-71
2021/10/18 13:10:56;;;;;;;2.00;1.80;;;10.20;99.90;;;;;;5053905;28;20479;-71
2021/10/18 13:13:30;;;;;;;4.13;2.50;;;10.20;99.90;;;;;;5045763;28;20550;-71
2021/10/18 13:16:00;;;;;;;3.00;2.03;;;10.10;99.90;;;;;;5046699;28;20894;-71
2021/10/18 13:18:31;;;;;;;5.20;2.20;;;10.10;99.90;;;;;;5050860;28;20468;-71
2021/10/18 13:21:02;;;;;;;2.13;1.93;;;10.10;99.90;;;;;;5055447;28;20248;-71
2021/10/18 13:23:34;;;;;;;3.10;2.13;;;10.10;99.90;;;;;;5050787;28;20464;-72
2021/10/18 13:26:04;;;;;;;3.03;2.27;;;10.00;99.90;;;;;;5048776;28;20476;-71
2021/10/18 13:28:37;;;;;;;2.67;1.90;;;10.00;99.90;;;;;;5047591;28;20813;-71
2021/10/18 13:31:09;;;;;;;3.47;2.00;;;10.00;99.90;;;;;;5050097;28;20567;-71
2021/10/18 13:33:40;;;;;;;3.28;2.10;;;9.80;99.90;;;;;;5039978;28;20240;-72
2021/10/18 13:36:12;;;;;;;4.32;2.20;;;9.70;99.90;;;;;;5069339;28;20224;-71
2021/10/18 13:38:43;;;;;;;2.38;2.17;;;9.80;99.90;;;;;;5056200;28;20229;-71
2021/10/18 13:41:14;;;;;;;2.92;2.10;;;9.80;99.90;;;;;;5055468;28;20210;-71
2021/10/18 13:43:46;;;;;;;7.03;2.60;;;9.70;99.90;;;;;;5056726;28;20302;-72
2021/10/18 13:46:17;;;;;;;4.83;2.43;;;9.70;99.90;;;;;;5049576;28;20535;-72
2021/10/18 13:48:50;;;;;;;3.75;2.28;;;9.70;99.90;;;;;;5047129;28;20487;-72
2021/10/18 13:51:22;;;;;;;2.63;2.13;;;9.70;99.90;;;;;;5058361;28;20221;-71
2021/10/18 13:53:54;;;;;;;2.93;2.00;;;9.70;99.90;;;;;;5055952;28;20468;-71
2021/10/18 13:56:25;;;;;;;3.50;1.75;;;9.70;99.90;;;;;;5053950;28;20464;-72
2021/10/18 13:58:57;;;;;;;3.13;2.20;;;9.70;99.90;;;;;;5038445;28;20213;-71
2021/10/18 14:01:29;;;;;;;4.30;2.08;;;9.60;99.90;;;;;;5057678;28;20459;-71
2021/10/18 14:04:01;;;;;;;4.93;2.00;;;9.50;99.90;;;;;;5050448;28;20217;-72
2021/10/18 14:06:32;;;;;;;3.60;2.13;;;9.50;99.90;;;;;;5054392;28;20486;-71
2021/10/18 14:09:03;;;;;;;5.28;2.03;;;9.50;99.90;;;;;;5063885;28;20455;-71
2021/10/18 14:11:34;;;;;;;3.60;2.20;;;9.50;99.90;;;;;;5049470;28;20530;-71
2021/10/18 14:14:07;;;;;;;6.60;2.73;;;9.50;99.90;;;;;;5054969;28;20244;-71
2021/10/18 14:16:39;;;;;;;3.15;2.63;;;9.50;99.90;;;;;;5050090;28;20555;-70
2021/10/18 14:19:10;;;;;;;7.65;2.85;;;9.30;99.90;;;;;;5044722;28;20214;-72